Time;durP1;ratioP1;P1;durP2;ratioP2;P2;SDS_P1;SDS_P2;PMS_P1;PMS_P2;Temp;Humidity;BMP_temperature;BMP_pressure;BME280_temperature;BME280_humidity;BME280_pressure;Samples;Min_cycle;Max_cycle;Signal;HPM_P1;HPM_P2
2022/11/18 00:01:18;;;;;;;11.10;8.23;;;;;;;3.22;75.82;100107.02;1751872;81;25843;-63
2022/11/18 00:03:46;;;;;;;12.45;8.30;;;;;;;3.22;75.73;100103.89;1751833;81;25775;-62
2022/11/18 00:06:18;;;;;;;12.28;9.25;;;;;;;3.19;75.68;100104.55;1773660;80;25930;-62
2022/11/18 00:08:45;;;;;;;12.65;8.58;;;;;;;3.18;75.67;100113.02;1774639;80;25675;-62
2022/11/18 00:14:19;;;;;;;11.83;8.28;;;;;;;3.16;75.42;100105.63;1726730;82;25779;-62
2022/11/18 00:16:53;;;;;;;10.55;8.08;;;;;;;3.15;75.49;100115.88;1776073;80;26259;-62
2022/11/18 00:19:28;;;;;;;11.20;8.95;;;;;;;3.20;75.76;100112.91;1761059;80;25943;-62
2022/11/18 00:21:56;;;;;;;12.20;8.35;;;;;;;3.23;75.92;100122.84;1757556;81;25754;-62
2022/11/18 00:24:23;;;;;;;11.15;7.85;;;;;;;3.26;75.90;100117.33;1770854;80;27580;-62
2022/11/18 00:26:51;;;;;;;9.53;7.35;;;;;;;3.31;75.93;100104.22;1775319;80;25470;-62
2022/11/18 00:29:19;;;;;;;11.80;8.53;;;;;;;3.33;75.84;100091.18;1776504;80;25783;-62
2022/11/18 00:31:45;;;;;;;15.78;8.03;;;;;;;3.36;75.86;100088.29;1776174;80;25914;-62
2022/11/18 00:34:16;;;;;;;12.20;7.97;;;;;;;3.42;75.99;100087.88;1774414;80;26080;-62
2022/11/18 00:36:44;;;;;;;10.98;7.97;;;;;;;3.47;75.96;100087.56;1776012;80;27445;-62
2022/11/18 00:39:14;;;;;;;12.43;8.60;;;;;;;3.53;76.07;100083.13;1776154;80;25813;-62
2022/11/18 00:44:27;;;;;;;10.68;7.83;;;;;;;3.64;76.06;100077.05;1776217;80;25791;-62
2022/11/18 00:46:55;;;;;;;9.00;7.75;;;;;;;3.69;75.88;100067.41;1762617;80;25797;-62
2022/11/18 00:49:22;;;;;;;10.60;7.62;;;;;;;3.69;75.62;100068.28;1764420;80;27429;-62
2022/11/18 00:51:50;;;;;;;11.28;8.13;;;;;;;3.69;75.47;100057.64;1775756;80;25761;-62
2022/11/18 00:54:17;;;;;;;12.95;8.85;;;;;;;3.66;74.83;100056.52;1760765;80;26407;-62
2022/11/18 00:56:44;;;;;;;12.13;8.18;;;;;;;3.65;74.48;100055.31;1758854;81;25481;-62
2022/11/18 00:59:11;;;;;;;11.10;8.48;;;;;;;3.61;74.57;100054.68;1770583;80;25769;-62
2022/11/18 01:01:38;;;;;;;12.65;8.40;;;;;;;3.58;74.53;100059.74;1783798;80;27526;-62
2022/11/18 01:04:04;;;;;;;10.88;7.55;;;;;;;3.58;73.99;100056.22;1783048;80;25751;-62
2022/11/18 01:06:31;;;;;;;12.58;8.83;;;;;;;3.53;74.19;100048.56;1783798;80;25723;-62
2022/11/18 01:08:58;;;;;;;13.20;8.28;;;;;;;3.50;74.17;100046.11;1783062;80;26369;-62
2022/11/18 01:14:10;;;;;;;12.07;8.23;;;;;;;3.44;73.79;100031.47;1784357;80;27645;-62
2022/11/18 01:16:37;;;;;;;11.35;8.63;;;;;;;3.40;73.32;100035.28;1783465;80;25753;-62
2022/11/18 01:19:04;;;;;;;11.38;8.05;;;;;;;3.33;73.35;100043.33;1778599;80;25733;-62
2022/11/18 01:21:31;;;;;;;11.57;8.23;;;;;;;3.26;73.52;100044.72;1756644;80;25798;-62
2022/11/18 01:23:58;;;;;;;12.33;8.88;;;;;;;3.18;73.44;100054.55;1751223;81;25693;-62
2022/11/18 01:26:25;;;;;;;11.97;8.65;;;;;;;3.05;73.80;100051.89;1750880;81;27479;-63
2022/11/18 01:28:56;;;;;;;11.43;7.97;;;;;;;3.06;74.25;100049.60;1762488;80;26163;-62
2022/11/18 01:31:23;;;;;;;15.13;9.33;;;;;;;3.07;74.51;100064.59;1783954;80;25778;-63
2022/11/18 01:33:51;;;;;;;11.20;7.83;;;;;;;3.01;74.07;100071.64;1783860;80;25913;-62
2022/11/18 01:36:22;;;;;;;11.10;8.00;;;;;;;2.98;74.39;100079.34;1783073;80;25428;-62
2022/11/18 01:38:49;;;;;;;9.45;7.20;;;;;;;3.05;74.83;100078.95;1783996;80;27605;-62
2022/11/18 01:41:19;;;;;;;13.68;8.60;;;;;;;3.07;74.91;100071.24;1783908;80;25799;-62
2022/11/18 01:44:03;;;;;;;9.80;7.90;;;;;;;3.14;74.99;100067.66;1784184;80;25727;-63
2022/11/18 01:46:33;;;;;;;11.53;8.35;;;;;;;3.17;75.20;100062.64;1782450;80;25811;-63
2022/11/18 01:49:07;;;;;;;12.45;8.93;;;;;;;3.19;75.37;100077.52;1783614;80;26059;-63
2022/11/18 01:51:39;;;;;;;10.50;7.42;;;;;;;3.23;75.49;100068.84;1783863;78;28350;-63
2022/11/18 01:54:15;;;;;;;9.83;7.87;;;;;;;3.25;75.60;100072.26;1765664;80;26051;-63
2022/11/18 01:56:47;;;;;;;9.78;7.85;;;;;;;3.26;75.56;100084.10;1758270;81;25730;-62
2022/11/18 01:59:19;;;;;;;9.55;7.95;;;;;;;3.23;75.40;100088.29;1758658;81;27928;-63
2022/11/18 02:01:46;;;;;;;9.53;7.42;;;;;;;3.23;75.56;100094.09;1758981;81;25788;-63
2022/11/18 02:04:14;;;;;;;13.28;8.35;;;;;;;3.13;74.88;100103.20;1754756;80;27464;-62
2022/11/18 02:06:46;;;;;;;12.63;7.80;;;;;;;3.05;75.14;100094.41;1754089;81;25457;-62
2022/11/18 02:09:15;;;;;;;10.23;8.00;;;;;;;3.07;75.50;100085.86;1774518;80;25727;-63
2022/11/18 02:11:54;;;;;;;11.90;8.63;;;;;;;3.08;75.40;100078.72;1784530;79;26260;-62
2022/11/18 02:14:30;;;;;;;9.58;7.53;;;;;;;3.06;75.41;100085.94;1759600;80;44230;-62
2022/11/18 02:17:44;;;;;;;12.40;8.25;;;;;;;3.05;75.14;100073.64;1753992;81;27473;-62
2022/11/18 02:20:17;;;;;;;12.07;9.03;;;;;;;3.01;75.25;100074.79;1731607;81;26063;-63
2022/11/18 02:23:07;;;;;;;13.03;8.05;;;;;;;2.94;75.10;100067.70;1756278;80;25660;-63
2022/11/18 02:25:58;;;;;;;14.55;9.08;;;;;;;2.87;74.47;100074.39;1759147;80;25688;-62
2022/11/18 02:28:30;;;;;;;13.80;8.65;;;;;;;2.74;74.74;100075.70;1783398;79;25830;-63
2022/11/18 02:31:08;;;;;;;15.58;8.35;;;;;;;2.65;74.63;100067.86;1783095;79;27475;-62
2022/11/18 02:33:54;;;;;;;14.47;8.35;;;;;;;2.56;74.87;100064.48;1769820;79;25706;-62
2022/11/18 02:36:33;;;;;;;15.65;9.65;;;;;;;2.48;75.10;100067.18;1745718;81;25624;-62
2022/11/18 02:39:08;;;;;;;20.43;9.58;;;;;;;2.40;75.26;100068.16;1751602;81;25798;-62
2022/11/18 02:41:38;;;;;;;14.63;8.83;;;;;;;2.37;75.48;100068.84;1753906;81;25713;-62
2022/11/18 02:44:15;;;;;;;19.32;9.63;;;;;;;2.33;75.39;100080.98;1753826;80;27455;-62
2022/11/18 02:46:48;;;;;;;14.87;8.28;;;;;;;2.34;75.65;100083.18;1753840;81;25790;-62
2022/11/18 02:49:23;;;;;;;14.70;7.62;;;;;;;2.36;76.04;100077.30;1753771;81;25703;-62
2022/11/18 02:51:51;;;;;;;15.38;8.03;;;;;;;2.37;76.11;100079.01;1752612;81;25889;-62
2022/11/18 02:54:21;;;;;;;20.02;8.33;;;;;;;2.38;76.09;100075.38;1755607;80;25790;-62
2022/11/18 02:56:50;;;;;;;14.28;8.30;;;;;;;2.41;76.39;100096.42;1756358;81;27481;-62
2022/11/18 02:59:19;;;;;;;12.55;8.80;;;;;;;2.42;76.52;100099.95;1756488;81;25743;-62
2022/11/18 03:01:46;;;;;;;12.35;8.03;;;;;;;2.44;76.62;100102.00;1775276;80;26686;-62
2022/11/18 03:04:15;;;;;;;9.63;7.53;;;;;;;2.42;76.45;100100.78;1783942;79;26431;-62
2022/11/18 03:07:09;;;;;;;11.57;8.05;;;;;;;2.41;76.50;100094.25;1783382;80;25753;-62
2022/11/18 03:09:41;;;;;;;10.80;7.53;;;;;;;2.46;76.73;100094.80;1784106;79;27055;-62
2022/11/18 03:12:49;;;;;;;11.35;7.80;;;;;;;2.48;76.67;100101.70;1759162;80;25737;-62
2022/11/18 03:15:27;;;;;;;16.45;7.75;;;;;;;2.50;76.98;100094.98;1760099;81;26059;-62
2022/11/18 03:18:38;;;;;;;17.42;7.83;;;;;;;2.56;77.32;100095.89;1759475;80;25826;-62
2022/11/18 03:21:13;;;;;;;16.02;7.85;;;;;;;2.61;77.24;100095.09;1739436;80;26096;-62
2022/11/18 03:23:51;;;;;;;20.65;9.55;;;;;;;2.67;77.20;100111.11;1753963;81;27490;-64
2022/11/18 03:26:23;;;;;;;10.93;8.13;;;;;;;2.73;77.41;100101.42;1753378;80;25777;-62
2022/11/18 03:29:16;;;;;;;11.35;8.50;;;;;;;2.81;77.51;100107.08;1752594;81;26474;-62
2022/11/18 03:31:48;;;;;;;11.78;8.50;;;;;;;2.85;77.50;100126.77;1775316;79;26789;-62
2022/11/18 03:34:28;;;;;;;11.55;7.95;;;;;;;2.88;77.22;100140.70;1783202;79;25917;-62
2022/11/18 03:37:02;;;;;;;12.18;8.50;;;;;;;2.87;76.81;100148.78;1783419;80;27542;-62
2022/11/18 03:39:33;;;;;;;15.95;7.78;;;;;;;2.80;76.16;100145.67;1783742;80;26216;-62
2022/11/18 03:42:06;;;;;;;16.70;8.85;;;;;;;2.73;76.17;100139.94;1782195;80;25789;-62
2022/11/18 03:44:36;;;;;;;18.48;8.85;;;;;;;2.72;76.28;100137.36;1783409;80;26410;-62
2022/11/18 03:47:20;;;;;;;22.65;9.00;;;;;;;2.71;76.56;100147.15;1783832;79;25792;-62
2022/11/18 03:50:07;;;;;;;13.05;8.78;;;;;;;2.70;76.59;100137.48;1783535;80;27461;-62
2022/11/18 03:52:36;;;;;;;15.35;8.58;;;;;;;2.70;76.71;100129.97;1713738;81;26459;-62
2022/11/18 03:55:09;;;;;;;11.83;8.28;;;;;;;2.69;76.32;100128.30;1758607;81;25611;-62
2022/11/18 03:58:08;;;;;;;14.43;8.65;;;;;;;2.65;76.21;100117.86;1758420;80;25924;-62
2022/11/18 04:00:45;;;;;;;21.23;12.18;;;;;;;2.64;76.19;100124.61;1757553;80;25801;-62
2022/11/18 04:03:12;;;;;;;18.87;13.15;;;;;;;2.61;76.11;100116.34;1756625;81;29585;-62
2022/11/18 04:05:42;;;;;;;20.25;12.37;;;;;;;2.62;76.36;100128.67;1756641;81;25763;-62
2022/11/18 04:08:17;;;;;;;14.25;9.95;;;;;;;2.64;76.70;100129.43;1756808;81;25849;-62
2022/11/18 04:11:01;;;;;;;27.55;16.48;;;;;;;2.69;76.79;100129.62;1758586;80;25801;-62
2022/11/18 04:13:31;;;;;;;;;;;;;;;2.72;76.91;100136.91;1758706;81;25810;-62
2022/11/18 04:15:58;;;;;;;22.80;14.33;;;;;;;2.76;76.85;100122.45;1757776;80;27596;-62
2022/11/18 04:18:25;;;;;;;20.60;13.55;;;;;;;2.79;76.94;100121.39;1760356;81;27388;-62
2022/11/18 04:20:52;;;;;;;23.02;14.07;;;;;;;2.83;77.09;100114.93;1763037;80;25766;-62
2022/11/18 04:23:18;;;;;;;26.57;13.65;;;;;;;2.87;77.07;100118.23;1768213;80;25741;-62
2022/11/18 04:25:45;;;;;;;19.92;11.75;;;;;;;2.91;77.21;100132.53;1768361;81;25761;-62
2022/11/18 04:28:12;;;;;;;60.98;25.55;;;;;;;2.95;77.21;100139.82;1767789;80;29594;-62
2022/11/18 04:30:39;;;;;;;57.98;28.27;;;;;;;2.94;77.09;100135.45;1763169;80;25472;-62
2022/11/18 04:33:05;;;;;;;48.58;23.92;;;;;;;2.96;77.13;100137.05;1753131;80;25810;-62
2022/11/18 04:35:32;;;;;;;55.17;25.75;;;;;;;2.98;77.06;100134.31;1753731;81;25801;-62
2022/11/18 04:37:59;;;;;;;75.97;32.80;;;;;;;3.00;77.09;100131.54;1753570;81;25700;-62
2022/11/18 04:40:26;;;;;;;57.85;26.77;;;;;;;3.03;77.10;100141.48;1746667;80;27563;-62
2022/11/18 04:42:53;;;;;;;45.45;18.82;;;;;;;3.06;76.99;100147.94;1694187;84;25907;-62
2022/11/18 04:45:20;;;;;;;33.10;14.38;;;;;;;3.06;76.61;100139.09;1700008;81;25568;-62
2022/11/18 04:47:46;;;;;;;37.55;17.27;;;;;;;3.04;76.36;100129.91;1733495;81;25947;-62
2022/11/18 04:50:13;;;;;;;38.23;20.82;;;;;;;3.03;76.32;100130.86;1750191;82;25766;-62
2022/11/18 04:52:40;;;;;;;61.50;30.57;;;;;;;3.02;76.06;100125.66;1751005;81;29611;-62
2022/11/18 04:55:08;;;;;;;75.22;36.40;;;;;;;2.98;76.05;100122.35;1759836;80;25738;-62
2022/11/18 04:57:35;;;;;;;77.58;38.98;;;;;;;2.94;76.09;100127.48;1767644;81;25741;-62
2022/11/18 05:00:05;;;;;;;68.97;33.02;;;;;;;2.92;76.16;100132.05;1767318;81;25801;-62
2022/11/18 05:02:31;;;;;;;57.15;29.40;;;;;;;2.89;76.15;100138.91;1767502;81;25956;-62
2022/11/18 05:04:58;;;;;;;38.28;21.57;;;;;;;2.85;75.94;100130.76;1757733;80;27417;-62
2022/11/18 05:07:25;;;;;;;29.00;17.15;;;;;;;2.80;75.96;100132.39;1738008;82;25762;-62
2022/11/18 05:09:51;;;;;;;21.77;13.53;;;;;;;2.76;76.12;100141.05;1738231;80;25786;-62
2022/11/18 05:15:05;;;;;;;77.10;16.65;;;;;;;2.74;76.20;100158.04;1757621;80;25806;-62
2022/11/18 05:17:36;;;;;;;25.55;12.73;;;;;;;2.77;76.32;100168.47;1767531;81;27522;-62
2022/11/18 05:20:05;;;;;;;24.32;14.18;;;;;;;2.78;76.36;100160.39;1738233;81;25822;-62
2022/11/18 05:22:32;;;;;;;20.08;12.28;;;;;;;2.81;76.52;100168.63;1741511;81;25723;-62
2022/11/18 05:24:58;;;;;;;20.17;11.48;;;;;;;2.84;76.83;100185.70;1739652;81;25812;-62
2022/11/18 05:27:25;;;;;;;21.23;11.22;;;;;;;2.87;77.11;100181.99;1738434;82;25868;-62
2022/11/18 05:29:52;;;;;;;26.15;12.05;;;;;;;2.93;77.35;100193.08;1737899;82;27454;-62
2022/11/18 05:32:19;;;;;;;17.87;11.03;;;;;;;2.98;77.34;100192.28;1738482;82;25769;-62
2022/11/18 05:34:45;;;;;;;17.90;11.48;;;;;;;3.07;77.41;100193.95;1742995;80;26376;-62
2022/11/18 05:37:13;;;;;;;31.10;16.65;;;;;;;3.11;77.21;100198.95;1767581;81;25953;-62
2022/11/18 05:39:39;;;;;;;26.80;13.98;;;;;;;3.19;77.44;100197.59;1766462;80;25862;-62
2022/11/18 05:44:52;;;;;;;18.65;12.28;;;;;;;3.22;77.12;100200.05;1766277;80;26192;-62
2022/11/18 05:47:19;;;;;;;16.42;11.05;;;;;;;3.23;77.06;100199.09;1767476;81;25794;-62
2022/11/18 05:49:45;;;;;;;19.10;12.60;;;;;;;3.26;77.13;100185.61;1767044;81;25821;-62
2022/11/18 05:52:12;;;;;;;21.70;12.00;;;;;;;3.29;76.96;100187.58;1762657;81;25741;-62
2022/11/18 05:54:47;;;;;;;21.45;12.03;;;;;;;3.31;76.82;100182.15;1750257;81;27312;-62
2022/11/18 05:57:14;;;;;;;22.25;12.35;;;;;;;3.32;76.84;100175.87;1744000;81;25778;-62
2022/11/18 05:59:40;;;;;;;19.55;12.82;;;;;;;3.35;76.88;100163.72;1732168;82;26047;-62
2022/11/18 06:02:16;;;;;;;24.67;12.95;;;;;;;3.38;76.65;100167.48;1750715;81;25811;-62
2022/11/18 06:04:52;;;;;;;19.25;13.58;;;;;;;3.37;76.44;100171.09;1749200;81;25817;-62
2022/11/18 06:07:26;;;;;;;23.35;13.75;;;;;;;3.37;76.13;100172.42;1734420;82;27524;-62
2022/11/18 06:09:58;;;;;;;23.70;15.75;;;;;;;3.37;76.25;100168.43;1734222;82;25783;-62
2022/11/18 06:12:29;;;;;;;55.00;30.15;;;;;;;3.39;76.14;100173.17;1734060;81;25920;-62
2022/11/18 06:15:10;;;;;;;22.62;15.65;;;;;;;3.40;76.16;100175.38;1734033;82;25953;-62
2022/11/18 06:17:42;;;;;;;20.90;13.05;;;;;;;3.40;76.04;100170.89;1734129;82;25683;-62
2022/11/18 06:20:10;;;;;;;36.13;13.72;;;;;;;3.42;75.66;100167.66;1710932;82;27493;-62
2022/11/18 06:22:37;;;;;;;32.23;15.20;;;;;;;3.45;75.57;100170.58;1732973;81;25855;-62
2022/11/18 06:25:07;;;;;;;29.65;16.65;;;;;;;3.45;75.58;100166.09;1733873;82;25774;-62
2022/11/18 06:27:34;;;;;;;28.95;17.60;;;;;;;3.49;75.66;100164.10;1731028;82;25864;-62
2022/11/18 06:30:01;;;;;;;27.67;15.95;;;;;;;3.52;75.73;100158.55;1725300;82;25796;-62
2022/11/18 06:32:28;;;;;;;25.85;14.47;;;;;;;3.52;75.45;100164.37;1725130;82;27492;-62
2022/11/18 06:34:56;;;;;;;23.73;13.55;;;;;;;3.51;75.36;100173.30;1720753;82;25763;-62
2022/11/18 06:37:23;;;;;;;31.93;14.43;;;;;;;3.52;75.58;100177.17;1726500;82;25759;-62
2022/11/18 06:39:50;;;;;;;25.43;15.78;;;;;;;3.55;75.79;100172.98;1724201;82;25811;-62
2022/11/18 06:45:04;;;;;;;25.82;15.80;;;;;;;3.66;75.92;100184.20;1732084;81;28325;-62
2022/11/18 06:47:31;;;;;;;22.73;14.58;;;;;;;3.70;75.77;100187.03;1730375;81;26039;-62
2022/11/18 06:49:57;;;;;;;27.98;16.48;;;;;;;3.80;75.79;100189.05;1729126;81;26842;-62
2022/11/18 06:52:24;;;;;;;26.73;16.00;;;;;;;3.86;75.53;100196.11;1726874;81;25775;-62
2022/11/18 06:54:51;;;;;;;20.80;13.93;;;;;;;3.97;75.64;100199.83;1734733;81;26070;-62
2022/11/18 06:57:18;;;;;;;24.90;14.33;;;;;;;4.08;75.54;100212.75;1729076;82;27534;-62
2022/11/18 06:59:44;;;;;;;24.98;13.72;;;;;;;4.18;73.79;100200.13;1728047;82;25574;-62
2022/11/18 07:02:11;;;;;;;21.40;13.60;;;;;;;4.18;73.61;100199.66;1728016;82;25819;-62
2022/11/18 07:04:39;;;;;;;17.98;12.28;;;;;;;4.17;73.83;100193.13;1720406;82;25755;-62
2022/11/18 07:07:07;;;;;;;24.72;12.70;;;;;;;4.20;74.06;100184.90;1724650;82;25770;-62
2022/11/18 07:09:35;;;;;;;18.87;12.23;;;;;;;4.22;73.90;100175.00;1722731;82;28197;-62
2022/11/18 07:12:04;;;;;;;19.30;13.70;;;;;;;4.17;73.78;100167.34;1728481;81;26087;-62
2022/11/18 07:14:31;;;;;;;18.52;12.65;;;;;;;4.21;73.84;100163.97;1729113;82;25898;-62
2022/11/18 07:16:58;;;;;;;22.20;13.20;;;;;;;4.21;73.07;100140.84;1730619;82;25857;-62
2022/11/18 07:19:25;;;;;;;17.73;12.20;;;;;;;4.13;73.07;100133.89;1723228;82;25783;-62
2022/11/18 07:21:52;;;;;;;20.82;11.45;;;;;;;4.05;73.02;100141.58;1719468;81;27253;-62
2022/11/18 07:24:19;;;;;;;16.97;11.00;;;;;;;3.97;72.82;100132.84;1727540;82;25858;-62
2022/11/18 07:26:46;;;;;;;15.85;10.90;;;;;;;3.99;73.15;100134.05;1728128;83;25679;-61
2022/11/18 07:29:12;;;;;;;19.02;10.38;;;;;;;3.97;72.77;100126.64;1727871;83;25707;-61
2022/11/18 07:31:39;;;;;;;25.88;16.20;;;;;;;4.02;72.85;100131.17;1732885;81;26071;-61
2022/11/18 07:34:07;;;;;;;12.95;9.40;;;;;;;4.10;73.01;100136.80;1753444;81;27500;-62
2022/11/18 07:36:34;;;;;;;19.50;11.08;;;;;;;4.20;72.92;100133.84;1753476;81;25823;-61
2022/11/18 07:39:03;;;;;;;15.93;10.98;;;;;;;4.28;72.70;100147.92;1740121;81;25757;-61
2022/11/18 07:41:31;;;;;;;17.82;10.00;;;;;;;4.30;72.54;100156.66;1725196;83;26428;-61
2022/11/18 07:44:01;;;;;;;17.50;11.63;;;;;;;4.31;72.43;100158.36;1725006;83;25737;-61
2022/11/18 07:46:36;;;;;;;17.55;11.43;;;;;;;4.34;72.54;100166.59;1735660;81;28254;-61
2022/11/18 07:49:10;;;;;;;17.20;11.48;;;;;;;4.35;72.28;100149.17;1729512;81;25827;-61
2022/11/18 07:51:39;;;;;;;18.20;11.55;;;;;;;4.32;71.80;100152.53;1728890;81;25795;-62
2022/11/18 07:54:09;;;;;;;18.50;12.58;;;;;;;4.28;72.14;100161.23;1737995;81;25812;-62
2022/11/18 07:56:36;;;;;;;19.45;12.07;;;;;;;4.27;72.11;100156.86;1739845;81;25771;-62
2022/11/18 07:59:04;;;;;;;17.75;12.28;;;;;;;4.23;72.35;100147.41;1726607;81;27574;-62
2022/11/18 08:01:31;;;;;;;17.30;12.28;;;;;;;4.21;72.55;100148.83;1741630;81;25908;-62
2022/11/18 08:04:08;;;;;;;16.10;11.97;;;;;;;4.19;72.54;100145.45;1761614;81;25474;-62
2022/11/18 08:06:36;;;;;;;16.35;12.37;;;;;;;4.21;72.61;100151.50;1738560;81;26590;-62
2022/11/18 08:09:04;;;;;;;18.42;12.15;;;;;;;4.16;72.50;100150.16;1732859;82;25826;-62
2022/11/18 08:11:31;;;;;;;17.42;11.33;;;;;;;4.13;72.45;100140.55;1738704;81;27463;-62
2022/11/18 08:13:58;;;;;;;16.67;11.60;;;;;;;4.09;72.65;100137.76;1732682;81;25870;-62
2022/11/18 08:16:26;;;;;;;24.72;12.85;;;;;;;4.08;72.82;100135.55;1732968;82;25732;-61
2022/11/18 08:18:53;;;;;;;18.50;12.10;;;;;;;4.04;73.12;100131.89;1733115;81;25957;-61
2022/11/18 08:21:22;;;;;;;14.83;10.60;;;;;;;4.12;73.22;100138.87;1733315;82;25795;-61
2022/11/18 08:23:55;;;;;;;13.88;10.18;;;;;;;4.14;73.11;100132.94;1737667;81;28344;-61
2022/11/18 08:26:22;;;;;;;12.35;9.10;;;;;;;4.15;73.21;100138.64;1736659;81;25782;-63
2022/11/18 08:28:49;;;;;;;15.70;9.05;;;;;;;4.21;73.23;100138.68;1745649;81;25822;-62
2022/11/18 08:31:24;;;;;;;10.40;6.90;;;;;;;4.31;73.07;100137.52;1764060;81;25856;-62
2022/11/18 08:34:01;;;;;;;13.30;6.95;;;;;;;4.43;72.47;100143.79;1764695;81;25747;-62
2022/11/18 08:36:31;;;;;;;6.30;5.45;;;;;;;4.54;71.94;100154.48;1764544;81;28284;-62
2022/11/18 08:39:01;;;;;;;6.72;5.03;;;;;;;4.62;70.94;100153.94;1761117;81;25509;-62
2022/11/18 08:41:35;;;;;;;7.72;5.05;;;;;;;4.68;70.67;100161.00;1754131;81;25829;-62
2022/11/18 08:44:03;;;;;;;6.78;5.37;;;;;;;4.72;68.93;100159.42;1764658;81;34772;-62
2022/11/18 08:46:30;;;;;;;6.53;5.15;;;;;;;4.72;68.08;100165.63;1744396;81;25821;-62
2022/11/18 08:48:58;;;;;;;7.75;5.95;;;;;;;4.70;67.32;100167.54;1729105;81;27516;-62
2022/11/18 08:51:25;;;;;;;11.38;7.15;;;;;;;4.66;67.71;100170.91;1732501;82;25829;-62
2022/11/18 08:53:52;;;;;;;11.73;6.53;;;;;;;4.66;67.01;100169.58;1732473;82;25791;-62
2022/11/18 08:56:21;;;;;;;20.08;7.15;;;;;;;4.63;66.46;100168.95;1736354;81;26601;-62
2022/11/18 08:58:48;;;;;;;16.73;6.62;;;;;;;4.54;66.66;100166.02;1748214;81;25751;-62
2022/11/18 09:01:15;;;;;;;10.25;6.37;;;;;;;4.50;67.00;100164.52;1750005;81;29652;-62
2022/11/18 09:03:43;;;;;;;15.00;8.15;;;;;;;4.47;67.55;100161.23;1739970;81;25827;-62
2022/11/18 09:06:16;;;;;;;10.68;7.37;;;;;;;4.47;67.70;100156.77;1733081;82;25771;-62
2022/11/18 09:08:43;;;;;;;7.83;6.45;;;;;;;4.48;67.68;100154.45;1755246;81;25945;-62
2022/11/18 09:11:18;;;;;;;14.03;8.95;;;;;;;4.46;67.89;100150.20;1753270;81;26194;-62
2022/11/18 09:13:45;;;;;;;15.15;10.28;;;;;;;4.42;68.01;100135.42;1732756;82;27495;-62
2022/11/18 09:16:12;;;;;;;15.65;10.82;;;;;;;4.39;68.38;100132.52;1756717;81;25666;-62
2022/11/18 09:18:39;;;;;;;19.80;11.43;;;;;;;4.37;68.60;100133.94;1752137;81;25801;-62
2022/11/18 09:21:08;;;;;;;24.65;13.00;;;;;;;4.38;68.25;100130.81;1735987;81;26471;-62
2022/11/18 09:23:37;;;;;;;28.05;14.23;;;;;;;4.37;68.63;100129.11;1729564;81;25742;-62
2022/11/18 09:26:08;;;;;;;23.98;12.10;;;;;;;4.38;68.92;100132.14;1744364;81;27557;-62
2022/11/18 09:28:36;;;;;;;16.87;11.68;;;;;;;4.38;69.27;100122.33;1730913;81;26346;-62
2022/11/18 09:31:06;;;;;;;13.10;10.20;;;;;;;4.40;69.49;100110.22;1754761;81;25805;-62
2022/11/18 09:33:35;;;;;;;14.75;10.63;;;;;;;4.35;69.47;100102.56;1721014;82;25840;-62
2022/11/18 09:36:02;;;;;;;15.40;10.45;;;;;;;4.33;70.00;100103.19;1735310;81;26128;-62
2022/11/18 09:38:30;;;;;;;16.32;12.13;;;;;;;4.39;70.27;100095.23;1764328;81;27616;-62
2022/11/18 09:41:32;;;;;;;15.70;12.03;;;;;;;4.47;70.43;100090.65;1738465;81;26000;-62
2022/11/18 09:44:43;;;;;;;20.23;12.05;;;;;;;4.51;70.37;100091.64;1733236;81;25826;-62
2022/11/18 09:47:32;;;;;;;18.37;12.47;;;;;;;4.54;70.55;100076.77;1735416;81;25834;-62
2022/11/18 09:50:12;;;;;;;17.85;11.88;;;;;;;4.59;70.72;100074.23;1748821;81;25898;-62
2022/11/18 09:53:24;;;;;;;20.08;12.13;;;;;;;4.57;70.79;100078.84;1760281;81;27500;-62
2022/11/18 09:55:52;;;;;;;14.78;11.03;;;;;;;4.56;70.95;100079.31;1764653;81;25734;-61
2022/11/18 09:58:27;;;;;;;14.00;10.70;;;;;;;4.52;70.93;100068.53;1760441;81;25754;-62
2022/11/18 10:00:54;;;;;;;15.28;10.78;;;;;;;4.51;71.33;100069.50;1753459;81;26696;-62
2022/11/18 10:03:32;;;;;;;15.48;10.63;;;;;;;4.56;71.58;100076.65;1733114;82;25731;-62
2022/11/18 10:06:25;;;;;;;15.85;11.55;;;;;;;4.60;71.58;100065.28;1734133;82;27648;-62
2022/11/18 10:09:09;;;;;;;18.70;12.07;;;;;;;4.57;71.57;100062.86;1748090;81;25870;-62
2022/11/18 10:12:23;;;;;;;23.80;13.35;;;;;;;4.54;71.45;100050.14;1745123;81;25773;-61
2022/11/18 10:15:08;;;;;;;19.90;11.88;;;;;;;4.52;71.59;100057.38;1704385;81;25799;-62
2022/11/18 10:17:52;;;;;;;31.90;12.10;;;;;;;4.54;71.56;100047.47;1756362;81;25885;-61
2022/11/18 10:20:56;;;;;;;18.85;12.00;;;;;;;4.57;71.39;100042.39;1691810;82;27480;-61
2022/11/18 10:23:31;;;;;;;17.20;12.13;;;;;;;4.57;71.44;100054.88;1733051;81;25840;-61
2022/11/18 10:25:58;;;;;;;21.93;13.30;;;;;;;4.56;71.51;100047.34;1720214;81;25917;-61
2022/11/18 10:28:29;;;;;;;33.25;12.93;;;;;;;4.54;71.59;100045.27;1747043;81;25948;-61
2022/11/18 10:31:10;;;;;;;22.32;13.43;;;;;;;4.53;71.76;100053.77;1762278;81;25752;-61
2022/11/18 10:33:38;;;;;;;22.60;13.45;;;;;;;4.56;71.82;100042.02;1764400;81;27447;-61
2022/11/18 10:36:19;;;;;;;17.27;12.68;;;;;;;4.55;71.99;100040.31;1764311;81;25795;-61
2022/11/18 10:38:46;;;;;;;22.73;13.22;;;;;;;4.60;71.93;100052.83;1759309;81;25742;-61
2022/11/18 10:41:17;;;;;;;28.50;14.87;;;;;;;4.62;71.99;100064.19;1763431;81;25876;-61
2022/11/18 10:43:51;;;;;;;23.57;13.43;;;;;;;4.69;72.16;100055.26;1764378;81;25730;-61
2022/11/18 10:46:27;;;;;;;;;;;;;;;4.75;72.36;100055.28;1767154;81;27612;-61
2022/11/18 10:49:11;;;;;;;19.77;12.03;;;;;;;4.78;72.36;100057.23;1764537;81;25827;-61
2022/11/18 10:51:45;;;;;;;22.20;11.63;;;;;;;4.80;72.42;100061.09;1764517;81;25782;-62
2022/11/18 10:54:22;;;;;;;21.62;12.58;;;;;;;4.75;72.50;100064.11;1743620;81;25794;-61
2022/11/18 10:56:55;;;;;;;14.60;10.98;;;;;;;4.72;72.63;100060.37;1733171;82;25774;-62
2022/11/18 10:59:38;;;;;;;18.07;10.05;;;;;;;4.69;72.97;100057.92;1702225;82;27069;-63
2022/11/18 11:02:33;;;;;;;15.95;11.70;;;;;;;4.64;73.17;100058.27;1724483;82;26134;-62
2022/11/18 11:05:06;;;;;;;20.82;12.37;;;;;;;4.64;73.44;100060.94;1733209;82;25753;-62
2022/11/18 11:07:35;;;;;;;18.17;10.70;;;;;;;4.63;73.74;100065.89;1729413;82;25754;-62
2022/11/18 11:10:07;;;;;;;20.12;12.15;;;;;;;4.65;73.78;100061.31;1733429;82;25762;-62
2022/11/18 11:12:45;;;;;;;23.75;13.13;;;;;;;4.72;73.95;100064.83;1740604;81;28178;-62
2022/11/18 11:15:13;;;;;;;19.32;12.43;;;;;;;4.69;73.99;100060.13;1736653;81;25774;-62
2022/11/18 11:18:40;;;;;;;20.45;14.47;;;;;;;4.70;74.00;100062.29;1742427;80;25805;-62
2022/11/18 11:20:24;;;;;;;25.68;14.40;;;;;;;4.69;74.09;100048.59;1728350;82;26571;-62
2022/11/18 11:22:51;;;;;;;22.58;14.83;;;;;;;4.70;74.21;100051.17;1746722;81;27224;-62
2022/11/18 11:25:35;;;;;;;18.65;12.78;;;;;;;4.72;74.20;100048.84;1737144;81;27462;-62
2022/11/18 11:28:30;;;;;;;20.75;13.70;;;;;;;4.72;74.29;100048.84;1675353;84;29113;-62
2022/11/18 11:31:21;;;;;;;22.50;14.28;;;;;;;4.67;74.39;100051.85;1737288;82;25747;-62
2022/11/18 11:34:04;;;;;;;26.40;14.58;;;;;;;4.63;74.52;100056.56;1737870;81;25983;-62
2022/11/18 11:36:48;;;;;;;24.15;13.93;;;;;;;4.65;74.59;100059.14;1729824;82;25832;-62
2022/11/18 11:39:39;;;;;;;;;;;;;;;4.65;74.62;100057.31;1734464;82;27452;-62
2022/11/18 11:42:25;;;;;;;21.10;14.23;;;;;;;4.67;74.72;100062.52;1733808;82;25751;-62
2022/11/18 11:45:16;;;;;;;22.95;15.05;;;;;;;4.58;74.75;100053.41;1733742;82;25823;-62
2022/11/18 11:48:09;;;;;;;27.70;16.10;;;;;;;4.57;74.81;100052.20;1733253;82;26392;-62
2022/11/18 11:51:02;;;;;;;27.75;15.90;;;;;;;4.54;75.05;100049.27;1733376;82;25940;-62
2022/11/18 11:53:52;;;;;;;27.95;16.87;;;;;;;4.52;75.54;100057.38;1731181;82;27514;-62
2022/11/18 11:57:13;;;;;;;29.95;16.12;;;;;;;4.46;76.23;100049.00;1733485;82;25876;-62
2022/11/18 12:00:12;;;;;;;25.27;16.48;;;;;;;4.47;76.49;100050.70;1727512;82;25701;-62
2022/11/18 12:03:15;;;;;;;21.97;14.07;;;;;;;4.49;76.58;100054.94;1733247;81;26474;-62
2022/11/18 12:05:42;;;;;;;26.97;17.10;;;;;;;4.53;76.81;100056.42;1731803;82;26333;-61